Stinson Beach, CA (94970)

04:57 AM PDT am 23. April 2017 (GMT -0700)
Stinson Beach | | Change Station

Höhe 10 ft 37.91 °N, 122.67 °W | Updated 8 seconds ago

Teils Wolkig
Teils Wolkig
52.9 °F
gefühlte 52.9 °F
N
2.9
Wind Wechselnd Wind aus Nordwest
Gusts 6.0 mph

Heute
Max. -- | schwach -- °F
--% Regenrisiko
Gestern
Max. -- | schwach -- °F
Precip. -- inch
Druck 29.99 inch
Sichtweite 10.0 Meilen
Wolken Few 1900 ft
Taupunkt 47 °F
Feuchtigkeit 80%
Regen 0.00 inch
Schneehöhe Nicht verfügbar..
6:23 AM 7:54 PM
Letztes Viertel, 12% visible
METAR KO69 231135Z AUTO 31003KT 10SM FEW019 10/08 A2999 RMK A01
Druck 29.99 inch
Sichtweite 10.0 Meilen
Wolken Few 1900 ft
Taupunkt 47 °F
Feuchtigkeit 80%
Regen 0.00 inch
Schneehöhe Nicht verfügbar..
6:23 AM 7:54 PM
Letztes Viertel, 12% visible
METAR KO69 231135Z AUTO 31003KT 10SM FEW019 10/08 A2999 RMK A01

Get Severe Weather Alerts

Thanks for signing up!

Be on the lookout for a verification email in your inbox.

You'll start receiving the daily forecast at 8 AM.

×

10-Day Weather Forecast

Almanac

Astronomie

Apr. 23, 2017 Aufgang Untergang
Genaue Zeit
Bürgerliche Dämmerung
Nautische Dämmerung
Astronomische Dämmerung
Mond
Länge des sichtbaren Lichts
Tageslänge
Tomorrow will be .
, % of the Moon is Illuminated

Heutige Rekorde

State Highs State Lows

Community

WunderPhotos

WunderBlog® & News

Nearby

Luftqualität

  Luftqualität LQ Index Schadstoff
Not available.

Schneehöhe

Station Depth Höhe

Erdbebenaktivität

Stadt Distance Mag. Time & Date
Minimum magnitude displayed is 2.5.

küstennahe Wassertemperaturen

Ort Temperatur

Stations

Wetterstationen in der Umgebung

Stationsstandort Temp. Windchill Taupunkt Feuchtigkeit Wind Precip. Höhe Aktualisiert Art
                   

Watches & Warnings

There are currently no watches in effect.